createdAt,value
2023-04-15T00:00:34.459Z,2437.00
2023-04-15T00:01:34.465Z,2436.00
2023-04-15T00:02:34.596Z,2437.00
2023-04-15T00:03:35.005Z,2443.00
2023-04-15T00:04:34.469Z,2435.00
2023-04-15T00:05:34.377Z,2428.00
2023-04-15T00:06:34.337Z,2423.00
2023-04-15T00:07:34.316Z,2424.00
2023-04-15T00:08:34.329Z,2416.00
2023-04-15T00:09:34.337Z,2424.00
2023-04-15T00:10:34.336Z,2413.00
2023-04-15T00:11:34.345Z,2409.00
2023-04-15T00:12:34.352Z,2422.00
2023-04-15T00:13:34.360Z,2414.00
2023-04-15T00:14:34.387Z,2416.00
2023-04-15T00:15:34.386Z,2404.00
2023-04-15T00:16:34.409Z,2415.00
2023-04-15T00:17:34.459Z,2389.00
2023-04-15T00:18:34.425Z,2411.00
2023-04-15T00:19:34.460Z,2406.00
2023-04-15T00:20:34.469Z,2396.00
2023-04-15T00:21:34.477Z,2398.00
2023-04-15T00:22:34.487Z,2399.00
2023-04-15T00:23:34.523Z,2378.00
2023-04-15T00:24:34.523Z,2397.00
2023-04-15T00:25:34.545Z,2384.00
2023-04-15T00:26:34.541Z,2357.00
2023-04-15T00:27:34.549Z,2395.00
2023-04-15T00:28:34.572Z,2393.00
2023-04-15T00:29:34.600Z,2391.00
2023-04-15T00:30:34.612Z,2380.00
2023-04-15T00:31:34.598Z,2387.00
2023-04-15T00:32:34.661Z,2385.00
2023-04-15T00:33:34.656Z,2376.00
2023-04-15T00:34:34.656Z,2379.00
2023-04-15T00:35:34.637Z,2380.00
2023-04-15T00:36:34.657Z,2380.00
2023-04-15T00:37:34.610Z,2381.00
2023-04-15T00:38:34.584Z,2380.00
2023-04-15T00:39:34.564Z,2364.00
2023-04-15T00:40:34.538Z,2382.00
2023-04-15T00:41:34.514Z,2382.00
2023-04-15T00:42:34.531Z,2382.00
2023-04-15T00:43:34.493Z,2376.00
2023-04-15T00:44:34.458Z,2383.00
2023-04-15T00:45:34.497Z,2383.00
2023-04-15T00:46:34.413Z,2381.00
2023-04-15T00:47:34.460Z,2375.00
2023-04-15T00:48:34.376Z,2368.00
2023-04-15T00:49:34.350Z,2373.00
2023-04-15T00:50:34.360Z,2367.00
2023-04-15T00:51:34.318Z,2360.00
2023-04-15T00:52:34.298Z,2360.00
2023-04-15T00:53:34.284Z,2355.00
2023-04-15T00:54:34.239Z,2366.00
2023-04-15T00:55:34.243Z,2351.00
2023-04-15T00:56:34.238Z,2354.00
2023-04-15T00:57:34.269Z,2351.00
2023-04-15T00:58:34.299Z,2347.00
2023-04-15T00:59:34.323Z,2340.00
2023-04-15T01:00:34.327Z,2341.00
2023-04-15T01:01:34.358Z,2341.00
2023-04-15T01:02:34.502Z,2344.00
2023-04-15T01:03:34.635Z,2336.00
2023-04-15T01:04:34.422Z,2337.00
2023-04-15T01:05:34.437Z,2338.00
2023-04-15T01:06:34.444Z,2335.00
2023-04-15T01:07:34.463Z,2332.00
2023-04-15T01:08:34.499Z,2330.00
2023-04-15T01:09:34.511Z,2330.00
2023-04-15T01:10:34.540Z,2327.00
2023-04-15T01:11:34.554Z,2329.00
2023-04-15T01:12:34.571Z,2320.00
2023-04-15T01:13:34.607Z,2314.00
2023-04-15T01:14:34.614Z,2322.00
2023-04-15T01:15:34.656Z,2321.00
2023-04-15T01:16:34.694Z,2299.00
2023-04-15T01:17:34.721Z,2304.00
2023-04-15T01:18:34.699Z,2318.00
2023-04-15T01:19:34.766Z,2310.00
2023-04-15T01:20:34.752Z,2290.00
2023-04-15T01:21:34.778Z,2312.00
2023-04-15T01:22:34.797Z,2307.00
2023-04-15T01:23:34.825Z,2309.00
2023-04-15T01:24:34.857Z,2301.00
2023-04-15T01:25:34.915Z,2307.00
2023-04-15T01:26:34.890Z,2297.00
2023-04-15T01:27:34.917Z,2296.00
2023-04-15T01:28:34.937Z,2295.00
2023-04-15T01:29:34.993Z,2296.00
2023-04-15T01:30:35.014Z,2295.00
2023-04-15T01:31:35.057Z,2270.00
2023-04-15T01:32:35.081Z,2290.00
2023-04-15T01:33:35.099Z,2283.00
2023-04-15T01:34:35.792Z,2293.00
2023-04-15T01:35:35.161Z,2287.00
2023-04-15T01:36:35.176Z,2280.00
2023-04-15T01:37:35.220Z,2277.00
2023-04-15T01:38:35.240Z,2276.00
2023-04-15T01:39:35.282Z,2277.00
2023-04-15T01:40:35.353Z,2273.00
2023-04-15T01:41:35.338Z,2268.00
2023-04-15T01:42:35.362Z,2267.00
2023-04-15T01:43:35.385Z,2269.00
2023-04-15T01:44:35.409Z,2263.00
2023-04-15T01:45:35.446Z,2264.00
2023-04-15T01:46:35.534Z,2255.00
2023-04-15T01:47:35.500Z,2256.00
2023-04-15T01:48:35.522Z,2258.00
2023-04-15T01:49:35.549Z,2262.00
2023-04-15T01:50:35.563Z,2260.00
2023-04-15T01:51:35.583Z,2255.00
2023-04-15T01:52:35.624Z,2248.00
2023-04-15T01:53:35.630Z,2250.00
2023-04-15T01:54:35.676Z,2250.00
2023-04-15T01:55:35.696Z,2250.00
2023-04-15T01:56:35.723Z,2240.00
2023-04-15T01:57:35.741Z,2239.00
2023-04-15T01:58:35.760Z,2228.00
2023-04-15T01:59:35.779Z,2238.00
2023-04-15T02:00:35.908Z,2242.00
2023-04-15T02:01:35.840Z,2241.00
2023-04-15T02:02:35.949Z,2232.00
2023-04-15T02:03:35.963Z,2234.00
2023-04-15T02:04:35.931Z,2229.00
2023-04-15T02:05:35.962Z,2232.00
2023-04-15T02:06:35.993Z,2235.00
2023-04-15T02:07:36.026Z,2218.00
2023-04-15T02:08:36.041Z,2233.00
2023-04-15T02:09:36.094Z,2230.00
2023-04-15T02:10:36.102Z,2216.00
2023-04-15T02:11:36.133Z,2219.00
2023-04-15T02:12:36.164Z,2216.00
2023-04-15T02:13:36.225Z,2205.00
2023-04-15T02:14:36.233Z,2215.00
2023-04-15T02:15:36.241Z,2207.00
2023-04-15T02:16:36.326Z,2208.00
2023-04-15T02:17:36.330Z,2202.00
2023-04-15T02:18:36.332Z,2202.00
2023-04-15T02:19:36.363Z,2204.00
2023-04-15T02:20:36.389Z,2205.00
2023-04-15T02:21:36.425Z,2206.00
2023-04-15T02:22:36.442Z,2211.00
2023-04-15T02:23:36.469Z,2198.00
2023-04-15T02:24:36.503Z,2198.00
2023-04-15T02:25:36.524Z,2190.00
2023-04-15T02:26:36.560Z,2199.00
2023-04-15T02:27:36.574Z,2193.00
2023-04-15T02:28:36.610Z,2195.00
2023-04-15T02:29:36.654Z,2190.00
2023-04-15T02:30:36.659Z,2187.00
2023-04-15T02:31:36.746Z,2190.00
2023-04-15T02:32:36.720Z,2185.00
2023-04-15T02:33:36.733Z,2192.00
2023-04-15T02:34:36.765Z,2180.00
2023-04-15T02:35:36.777Z,2173.00
2023-04-15T02:36:36.832Z,2179.00
2023-04-15T02:37:36.842Z,2174.00
2023-04-15T02:38:36.894Z,2172.00
2023-04-15T02:39:36.927Z,2164.00
2023-04-15T02:40:36.953Z,2165.00
2023-04-15T02:41:36.994Z,2165.00
2023-04-15T02:42:37.028Z,2164.00
2023-04-15T02:43:37.051Z,2166.00
2023-04-15T02:44:37.086Z,2164.00
2023-04-15T02:45:37.152Z,2145.00
2023-04-15T02:46:37.144Z,2122.00
2023-04-15T02:47:37.206Z,2093.00
2023-04-15T02:48:37.227Z,2065.00
2023-04-15T02:49:37.285Z,2024.00
2023-04-15T02:50:37.320Z,1961.00
2023-04-15T02:51:37.364Z,1905.00
2023-04-15T02:52:37.385Z,1853.00
2023-04-15T02:53:37.390Z,1803.00
2023-04-15T02:54:37.432Z,1746.00
2023-04-15T02:55:37.420Z,1711.00
2023-04-15T02:56:37.466Z,1675.00
2023-04-15T02:57:37.481Z,1637.00
2023-04-15T02:58:37.590Z,1587.00
2023-04-15T02:59:37.565Z,1541.00
2023-04-15T03:00:37.564Z,1499.00
2023-04-15T03:01:37.581Z,1469.00
2023-04-15T03:02:37.715Z,1442.00
2023-04-15T03:03:37.612Z,1419.00
2023-04-15T03:04:37.620Z,1372.00
2023-04-15T03:05:37.625Z,1342.00
2023-04-15T03:06:37.629Z,1316.00
2023-04-15T03:07:37.632Z,1283.00
2023-04-15T03:08:37.646Z,1263.00
2023-04-15T03:09:37.726Z,1247.00
2023-04-15T03:10:37.857Z,1216.00
2023-04-15T03:11:37.840Z,1216.00
2023-04-15T03:12:37.845Z,1194.00
2023-04-15T03:13:37.854Z,1165.00
2023-04-15T03:14:37.857Z,1156.00
2023-04-15T03:15:37.920Z,1143.00
2023-04-15T03:16:37.898Z,1124.00
2023-04-15T03:17:37.947Z,1121.00
2023-04-15T03:18:37.917Z,1105.00
2023-04-15T03:19:37.932Z,1066.00
2023-04-15T03:20:37.996Z,1076.00
2023-04-15T03:21:37.999Z,1066.00
2023-04-15T03:22:38.059Z,1050.00
2023-04-15T03:23:38.040Z,1040.00
2023-04-15T03:24:38.072Z,1027.00
2023-04-15T03:25:38.103Z,1017.00
2023-04-15T03:26:38.130Z,1005.00
2023-04-15T03:27:38.152Z,1018.00
2023-04-15T03:28:38.178Z,1013.00
2023-04-15T03:29:38.211Z,1009.00
2023-04-15T03:30:38.241Z,990.00
2023-04-15T03:31:38.336Z,978.00
2023-04-15T03:32:38.428Z,965.00
2023-04-15T03:33:38.317Z,942.00
2023-04-15T03:34:38.364Z,936.00
2023-04-15T03:35:38.377Z,927.00
2023-04-15T03:36:38.428Z,925.00
2023-04-15T03:37:38.448Z,911.00
2023-04-15T03:38:38.481Z,902.00
2023-04-15T03:39:38.474Z,902.00
2023-04-15T03:40:38.477Z,903.00
2023-04-15T03:41:38.476Z,906.00
2023-04-15T03:42:38.469Z,911.00
2023-04-15T03:43:38.452Z,906.00
2023-04-15T03:44:38.456Z,889.00
2023-04-15T03:45:38.437Z,877.00
2023-04-15T03:46:38.472Z,877.00
2023-04-15T03:47:38.472Z,886.00
2023-04-15T03:48:38.403Z,871.00
2023-04-15T03:49:38.400Z,860.00
2023-04-15T03:50:38.402Z,863.00
2023-04-15T03:51:38.386Z,861.00
2023-04-15T03:52:38.440Z,853.00
2023-04-15T03:53:38.465Z,840.00
2023-04-15T03:54:38.555Z,848.00
2023-04-15T03:55:38.573Z,843.00
2023-04-15T03:56:38.597Z,833.00
2023-04-15T03:57:38.634Z,823.00
2023-04-15T03:58:38.688Z,814.00
2023-04-15T03:59:38.715Z,825.00
2023-04-15T04:00:38.770Z,807.00
2023-04-15T04:01:38.844Z,783.00
2023-04-15T04:02:39.117Z,802.00
2023-04-15T04:03:38.985Z,801.00
2023-04-15T04:04:38.944Z,793.00
2023-04-15T04:05:39.066Z,787.00
2023-04-15T04:06:39.012Z,777.00
2023-04-15T04:07:39.058Z,791.00
2023-04-15T04:08:39.106Z,778.00
2023-04-15T04:09:39.157Z,760.00
2023-04-15T04:10:39.202Z,747.00
2023-04-15T04:11:39.224Z,752.00
2023-04-15T04:12:39.258Z,754.00
2023-04-15T04:13:39.317Z,736.00
2023-04-15T04:14:39.355Z,716.00
2023-04-15T04:15:39.496Z,727.00
2023-04-15T04:16:39.466Z,723.00
2023-04-15T04:17:39.519Z,727.00
2023-04-15T04:18:39.549Z,731.00
2023-04-15T04:19:39.577Z,713.00
2023-04-15T04:20:39.637Z,720.00
2023-04-15T04:21:39.697Z,721.00
2023-04-15T04:22:39.737Z,705.00
2023-04-15T04:23:39.784Z,709.00
2023-04-15T04:24:39.838Z,716.00
2023-04-15T04:25:39.895Z,720.00
2023-04-15T04:26:39.932Z,707.00
2023-04-15T04:27:40.032Z,682.00
2023-04-15T04:28:40.045Z,688.00
2023-04-15T04:29:40.085Z,676.00
2023-04-15T04:30:40.123Z,663.00
2023-04-15T04:31:40.226Z,658.00
2023-04-15T04:32:40.269Z,657.00
2023-04-15T04:33:40.273Z,656.00
2023-04-15T04:34:40.347Z,652.00
2023-04-15T04:35:40.388Z,646.00
2023-04-15T04:36:40.444Z,643.00
2023-04-15T04:37:40.503Z,649.00
2023-04-15T04:38:40.548Z,643.00
2023-04-15T04:39:40.628Z,643.00
2023-04-15T04:40:40.684Z,641.00
2023-04-15T04:41:40.738Z,638.00
2023-04-15T04:42:40.798Z,638.00
2023-04-15T04:43:40.844Z,637.00
2023-04-15T04:44:40.890Z,637.00
2023-04-15T04:45:40.983Z,633.00
2023-04-15T04:46:40.997Z,632.00
2023-04-15T04:47:41.083Z,633.00
2023-04-15T04:48:41.108Z,632.00
2023-04-15T04:49:41.201Z,630.00
2023-04-15T04:50:41.237Z,631.00
2023-04-15T04:51:41.270Z,629.00
2023-04-15T04:52:41.327Z,631.00
2023-04-15T04:53:41.389Z,624.00
2023-04-15T04:54:41.460Z,632.00
2023-04-15T04:55:41.512Z,627.00
2023-04-15T04:56:41.574Z,624.00
2023-04-15T04:57:41.622Z,623.00
2023-04-15T04:58:41.677Z,622.00
2023-04-15T04:59:41.706Z,627.00
2023-04-15T05:00:41.732Z,616.00
2023-04-15T05:01:41.804Z,616.00
2023-04-15T05:02:41.842Z,616.00
2023-04-15T05:03:41.842Z,616.00
2023-04-15T05:04:41.707Z,618.00
2023-04-15T05:05:41.679Z,611.00
2023-04-15T05:06:41.683Z,612.00
2023-04-15T05:07:41.668Z,612.00
2023-04-15T05:08:41.650Z,601.00
2023-04-15T05:09:41.716Z,609.00
2023-04-15T05:10:41.798Z,603.00
2023-04-15T05:11:41.852Z,601.00
2023-04-15T05:12:41.835Z,597.00
2023-04-15T05:13:41.835Z,595.00
2023-04-15T05:14:41.834Z,596.00
2023-04-15T05:15:41.851Z,600.00
2023-04-15T05:16:41.820Z,597.00
2023-04-15T05:17:41.841Z,597.00
2023-04-15T05:18:41.799Z,604.00
2023-04-15T05:19:41.798Z,600.00
2023-04-15T05:20:41.820Z,605.00
2023-04-15T05:21:41.847Z,607.00
2023-04-15T05:22:41.905Z,615.00
2023-04-15T05:23:41.971Z,609.00
2023-04-15T05:24:42.040Z,611.00
2023-04-15T05:25:42.100Z,611.00
2023-04-15T05:26:42.970Z,613.00
2023-04-15T05:27:42.232Z,615.00
2023-04-15T05:28:42.274Z,610.00
2023-04-15T05:29:42.317Z,618.00
2023-04-15T05:30:42.396Z,623.00
2023-04-15T05:31:42.554Z,619.00
2023-04-15T05:32:42.540Z,619.00
2023-04-15T05:33:42.554Z,621.00
2023-04-15T05:34:42.592Z,623.00
2023-04-15T05:35:42.648Z,623.00
2023-04-15T05:36:42.710Z,630.00
2023-04-15T05:37:42.766Z,628.00
2023-04-15T05:38:42.826Z,622.00
2023-04-15T05:39:42.872Z,628.00
2023-04-15T05:40:42.930Z,621.00
2023-04-15T05:41:42.992Z,627.00
2023-04-15T05:42:43.052Z,623.00
2023-04-15T05:43:43.084Z,624.00
2023-04-15T05:44:43.152Z,622.00
2023-04-15T05:45:43.197Z,626.00
2023-04-15T05:46:43.329Z,624.00
2023-04-15T05:47:43.350Z,623.00
2023-04-15T05:48:43.381Z,613.00
2023-04-15T05:49:43.399Z,616.00
2023-04-15T05:50:43.426Z,611.00
2023-04-15T05:51:43.467Z,603.00
2023-04-15T05:52:43.508Z,601.00
2023-04-15T05:53:43.551Z,600.00
2023-04-15T05:54:43.613Z,592.00
2023-04-15T05:55:43.680Z,590.00
2023-04-15T05:56:43.725Z,584.00
2023-04-15T05:57:43.770Z,589.00
2023-04-15T05:58:43.812Z,585.00
2023-04-15T05:59:43.829Z,578.00
2023-04-15T06:00:43.866Z,577.00
2023-04-15T06:01:43.919Z,571.00
2023-04-15T06:02:44.094Z,563.00
2023-04-15T06:03:44.115Z,565.00
2023-04-15T06:04:44.065Z,548.00
2023-04-15T06:05:44.072Z,547.00
2023-04-15T06:06:44.128Z,549.00
2023-04-15T06:07:44.728Z,544.00
2023-04-15T06:08:44.203Z,546.00
2023-04-15T06:09:44.243Z,540.00
2023-04-15T06:10:44.292Z,540.00
2023-04-15T06:11:44.336Z,541.00
2023-04-15T06:12:44.361Z,543.00
2023-04-15T06:13:44.387Z,545.00
2023-04-15T06:14:44.445Z,540.00
2023-04-15T06:15:44.500Z,543.00
2023-04-15T06:16:44.567Z,549.00
2023-04-15T06:17:44.652Z,531.00
2023-04-15T06:18:44.664Z,537.00
2023-04-15T06:19:44.730Z,534.00
2023-04-15T06:20:44.768Z,535.00
2023-04-15T06:21:44.832Z,532.00
2023-04-15T06:22:44.886Z,535.00
2023-04-15T06:23:44.945Z,531.00
2023-04-15T06:24:45.024Z,530.00
2023-04-15T06:25:45.069Z,536.00
2023-04-15T06:26:45.137Z,535.00
2023-04-15T06:27:45.186Z,534.00
2023-04-15T06:28:45.250Z,529.00
2023-04-15T06:29:45.301Z,532.00
2023-04-15T06:30:45.405Z,530.00
2023-04-15T06:31:45.532Z,529.00
2023-04-15T06:32:45.509Z,536.00
2023-04-15T06:33:45.569Z,525.00
2023-04-15T06:34:45.626Z,520.00
2023-04-15T06:35:45.657Z,518.00
2023-04-15T06:36:45.698Z,512.00
2023-04-15T06:37:45.742Z,505.00
2023-04-15T06:38:45.758Z,501.00
2023-04-15T06:39:45.779Z,499.00
2023-04-15T06:40:45.841Z,500.00
2023-04-15T06:41:45.899Z,505.00
2023-04-15T06:42:45.942Z,502.00
2023-04-15T06:43:46.000Z,502.00
2023-04-15T06:44:46.057Z,500.00
2023-04-15T06:45:46.165Z,500.00
2023-04-15T06:46:46.174Z,509.00
2023-04-15T06:47:46.346Z,501.00
2023-04-15T06:48:46.296Z,503.00
2023-04-15T06:49:46.366Z,500.00
2023-04-15T06:50:46.384Z,501.00
2023-04-15T06:51:46.457Z,505.00
2023-04-15T06:52:46.502Z,500.00
2023-04-15T06:53:46.572Z,500.00
2023-04-15T06:54:46.633Z,505.00
2023-04-15T06:55:46.690Z,500.00
2023-04-15T06:56:46.725Z,499.00
2023-04-15T06:57:46.763Z,500.00
2023-04-15T06:58:46.823Z,503.00
2023-04-15T06:59:46.903Z,498.00
2023-04-15T07:00:46.940Z,502.00
2023-04-15T07:01:46.971Z,497.00
2023-04-15T07:02:47.048Z,500.00
2023-04-15T07:03:47.052Z,498.00
2023-04-15T07:04:47.043Z,500.00
2023-04-15T07:05:47.058Z,497.00
2023-04-15T07:06:47.076Z,500.00
2023-04-15T07:07:47.098Z,504.00
2023-04-15T07:08:47.139Z,508.00
2023-04-15T07:09:47.177Z,513.00
2023-04-15T07:10:47.194Z,506.00
2023-04-15T07:11:47.226Z,504.00
2023-04-15T07:12:47.241Z,503.00
2023-04-15T07:13:47.253Z,501.00
2023-04-15T07:14:47.289Z,503.00
2023-04-15T07:15:47.296Z,506.00
2023-04-15T07:16:47.420Z,500.00
2023-04-15T07:17:47.413Z,511.00
2023-04-15T07:18:47.441Z,502.00
2023-04-15T07:19:47.485Z,500.00
2023-04-15T07:20:47.534Z,500.00
2023-04-15T07:21:47.578Z,500.00
2023-04-15T07:22:47.610Z,503.00
2023-04-15T07:23:47.667Z,500.00
2023-04-15T07:24:47.719Z,503.00
2023-04-15T07:25:47.810Z,503.00
2023-04-15T07:26:47.843Z,500.00
2023-04-15T07:27:47.906Z,502.00
2023-04-15T07:28:47.919Z,500.00
2023-04-15T07:29:47.984Z,502.00
2023-04-15T07:30:48.121Z,513.00
2023-04-15T07:31:48.110Z,504.00
2023-04-15T07:32:48.239Z,502.00
2023-04-15T07:33:48.183Z,509.00
2023-04-15T07:34:48.227Z,501.00
2023-04-15T07:35:48.277Z,503.00
2023-04-15T07:36:48.342Z,500.00
2023-04-15T07:37:48.393Z,502.00
2023-04-15T07:38:48.429Z,504.00
2023-04-15T07:39:48.485Z,502.00
2023-04-15T07:40:48.535Z,500.00
2023-04-15T07:41:48.585Z,504.00
2023-04-15T07:42:48.627Z,501.00
2023-04-15T07:43:48.677Z,500.00
2023-04-15T07:44:48.713Z,503.00
2023-04-15T07:45:48.828Z,514.00
2023-04-15T07:46:48.825Z,507.00
2023-04-15T07:47:48.911Z,507.00
2023-04-15T07:48:48.913Z,514.00
2023-04-15T07:49:48.974Z,511.00
2023-04-15T07:50:49.035Z,510.00
2023-04-15T07:51:49.103Z,505.00
2023-04-15T07:52:49.110Z,500.00
2023-04-15T07:53:49.146Z,504.00
2023-04-15T07:54:49.200Z,504.00
2023-04-15T07:55:49.229Z,503.00
2023-04-15T07:56:49.293Z,507.00
2023-04-15T07:57:49.338Z,507.00
2023-04-15T07:58:49.363Z,500.00
2023-04-15T07:59:49.418Z,505.00
2023-04-15T08:00:49.461Z,504.00
2023-04-15T08:01:49.561Z,506.00
2023-04-15T08:02:49.632Z,501.00
2023-04-15T08:03:49.739Z,503.00
2023-04-15T08:04:49.715Z,501.00
2023-04-15T08:05:49.665Z,500.00
2023-04-15T08:06:49.703Z,500.00
2023-04-15T08:07:49.704Z,499.00
2023-04-15T08:08:49.710Z,501.00
2023-04-15T08:09:49.662Z,497.00
2023-04-15T08:10:51.355Z,489.00
2023-04-15T08:11:49.634Z,477.00
2023-04-15T08:12:49.659Z,500.00
2023-04-15T08:13:49.615Z,508.00
2023-04-15T08:14:49.611Z,505.00
2023-04-15T08:15:49.633Z,508.00
2023-04-15T08:16:49.577Z,500.00
2023-04-15T08:17:49.615Z,503.00
2023-04-15T08:18:49.574Z,500.00
2023-04-15T08:19:49.546Z,502.00
2023-04-15T08:20:49.546Z,500.00
2023-04-15T08:21:49.527Z,506.00
2023-04-15T08:22:49.561Z,506.00
2023-04-15T08:23:49.503Z,511.00
2023-04-15T08:24:49.483Z,513.00
2023-04-15T08:25:49.488Z,503.00
2023-04-15T08:26:49.484Z,503.00
2023-04-15T08:27:49.465Z,497.00
2023-04-15T08:28:49.430Z,493.00
2023-04-15T08:29:49.434Z,499.00
2023-04-15T08:30:49.410Z,492.00
2023-04-15T08:31:49.461Z,510.00
2023-04-15T08:32:49.460Z,510.00
2023-04-15T08:33:49.372Z,510.00
2023-04-15T08:34:49.341Z,509.00
2023-04-15T08:35:49.339Z,508.00
2023-04-15T08:36:49.314Z,504.00
2023-04-15T08:37:49.384Z,508.00
2023-04-15T08:38:49.393Z,504.00
2023-04-15T08:39:49.413Z,511.00
2023-04-15T08:40:49.441Z,500.00
2023-04-15T08:41:49.492Z,500.00
2023-04-15T08:42:49.528Z,504.00
2023-04-15T08:43:49.525Z,507.00
2023-04-15T08:44:49.562Z,508.00
2023-04-15T08:45:49.608Z,510.00
2023-04-15T08:46:49.789Z,521.00
2023-04-15T08:47:49.671Z,522.00
2023-04-15T08:48:49.613Z,530.00
2023-04-15T08:49:49.569Z,556.00
2023-04-15T08:50:49.544Z,611.00
2023-04-15T08:51:49.549Z,723.00
2023-04-15T08:52:49.526Z,823.00
2023-04-15T08:53:49.492Z,905.00
2023-04-15T08:54:49.469Z,971.00
2023-04-15T08:55:49.466Z,1029.00
2023-04-15T08:56:49.483Z,1082.00
2023-04-15T08:57:49.453Z,1143.00
2023-04-15T08:58:49.428Z,1194.00
2023-04-15T08:59:49.414Z,1242.00
2023-04-15T09:00:49.459Z,1301.00
2023-04-15T09:03:08.908Z,500.00
2023-04-15T09:04:08.770Z,500.00
2023-04-15T09:05:08.702Z,500.00
2023-04-15T09:06:08.679Z,500.00
2023-04-15T09:07:08.680Z,500.00
2023-04-15T09:08:08.670Z,516.00
2023-04-15T09:09:08.597Z,537.00
2023-04-15T09:10:08.574Z,550.00
2023-04-15T09:11:08.563Z,572.00
2023-04-15T09:12:08.550Z,587.00
2023-04-15T09:13:08.533Z,601.00
2023-04-15T09:14:08.498Z,619.00
2023-04-15T09:15:08.467Z,631.00
2023-04-15T09:16:08.594Z,649.00
2023-04-15T09:17:08.421Z,664.00
2023-04-15T09:18:08.401Z,685.00
2023-04-15T09:19:08.402Z,728.00
2023-04-15T09:20:08.352Z,772.00
2023-04-15T09:21:08.314Z,808.00
2023-04-15T09:22:08.313Z,823.00
2023-04-15T09:23:08.276Z,859.00
2023-04-15T09:24:08.253Z,906.00
2023-04-15T09:25:08.227Z,918.00
2023-04-15T09:26:08.199Z,962.00
2023-04-15T09:27:08.169Z,946.00
2023-04-15T09:28:08.160Z,978.00
2023-04-15T09:29:08.132Z,1009.00
2023-04-15T09:30:08.072Z,1056.00
2023-04-15T09:31:08.050Z,1088.00
2023-04-15T09:32:08.001Z,1107.00
2023-04-15T09:33:08.077Z,1124.00
2023-04-15T09:34:07.942Z,1138.00
2023-04-15T09:35:07.913Z,1158.00
2023-04-15T09:36:07.892Z,1198.00
2023-04-15T09:37:08.056Z,1202.00
2023-04-15T09:38:07.863Z,1208.00
2023-04-15T09:39:07.800Z,1246.00
2023-04-15T09:40:07.772Z,1267.00
2023-04-15T09:41:07.749Z,1244.00
2023-04-15T09:42:07.726Z,1292.00
2023-04-15T09:43:07.734Z,1304.00
2023-04-15T09:44:07.664Z,1301.00
2023-04-15T09:45:07.647Z,1350.00
2023-04-15T09:46:07.710Z,1367.00
2023-04-15T09:47:07.569Z,1378.00
2023-04-15T09:48:07.608Z,1376.00
2023-04-15T09:49:07.518Z,1399.00
2023-04-15T09:50:07.482Z,1408.00
2023-04-15T09:51:07.438Z,1402.00
2023-04-15T09:52:07.398Z,1432.00
2023-04-15T09:53:07.376Z,1454.00
2023-04-15T09:54:07.361Z,1448.00
2023-04-15T09:55:07.303Z,1477.00
2023-04-15T09:56:07.261Z,1482.00
2023-04-15T09:57:07.304Z,1491.00
2023-04-15T09:58:07.213Z,1493.00
2023-04-15T09:59:07.192Z,1505.00
2023-04-15T10:00:07.151Z,1531.00
2023-04-15T10:01:07.187Z,1521.00
2023-04-15T10:02:07.439Z,1546.00
2023-04-15T10:03:07.336Z,1544.00
2023-04-15T10:04:07.559Z,1545.00
2023-04-15T10:05:07.165Z,1546.00
2023-04-15T10:06:07.124Z,1549.00
2023-04-15T10:07:07.077Z,1552.00
2023-04-15T10:08:07.048Z,1574.00
2023-04-15T10:09:07.010Z,1589.00
2023-04-15T10:10:07.048Z,1606.00
2023-04-15T10:11:06.935Z,1607.00
2023-04-15T10:12:06.922Z,1625.00
2023-04-15T10:13:06.862Z,1623.00
2023-04-15T10:14:06.817Z,1621.00
2023-04-15T10:15:06.769Z,1630.00
2023-04-15T10:16:06.753Z,1634.00
2023-04-15T10:17:06.681Z,1629.00
2023-04-15T10:18:06.689Z,1648.00
2023-04-15T10:19:06.644Z,1644.00
2023-04-15T10:20:06.607Z,1652.00
2023-04-15T10:21:06.602Z,1658.00
2023-04-15T10:22:06.585Z,1663.00
2023-04-15T10:23:09.023Z,1664.00
2023-04-15T10:24:06.553Z,1680.00
2023-04-15T10:25:06.498Z,1687.00
2023-04-15T10:26:06.473Z,1684.00
2023-04-15T10:27:06.438Z,1695.00
2023-04-15T10:28:06.388Z,1684.00
2023-04-15T10:29:06.347Z,1706.00
2023-04-15T10:30:06.349Z,1685.00
2023-04-15T10:31:06.322Z,1703.00
2023-04-15T10:32:06.255Z,1704.00
2023-04-15T10:33:06.203Z,1710.00
2023-04-15T10:34:06.178Z,1710.00
2023-04-15T10:35:06.140Z,1725.00
2023-04-15T10:36:06.100Z,1718.00
2023-04-15T10:37:06.062Z,1718.00
2023-04-15T10:38:06.038Z,1703.00
2023-04-15T10:39:06.015Z,1732.00
2023-04-15T10:40:05.977Z,1724.00
2023-04-15T10:41:05.986Z,1731.00
2023-04-15T10:42:05.913Z,1713.00
2023-04-15T10:43:05.887Z,1730.00
2023-04-15T10:44:05.975Z,1728.00
2023-04-15T10:45:05.804Z,1734.00
2023-04-15T10:46:05.797Z,1746.00
2023-04-15T10:47:05.743Z,1748.00
2023-04-15T10:48:05.780Z,1740.00
2023-04-15T10:49:05.707Z,1751.00
2023-04-15T10:50:05.621Z,1756.00
2023-04-15T10:51:05.610Z,1755.00
2023-04-15T10:52:05.561Z,1751.00
2023-04-15T10:53:05.530Z,1756.00
2023-04-15T10:54:05.682Z,1762.00
2023-04-15T10:55:05.477Z,1746.00
2023-04-15T10:56:05.399Z,1753.00
2023-04-15T10:57:05.401Z,1766.00
2023-04-15T10:58:05.336Z,1764.00
2023-04-15T10:59:05.318Z,1766.00
2023-04-15T11:00:05.266Z,1761.00
2023-04-15T11:01:05.220Z,1774.00
2023-04-15T11:02:05.252Z,1770.00
2023-04-15T11:03:05.333Z,1770.00
2023-04-15T11:04:05.247Z,1771.00
2023-04-15T11:05:05.095Z,1770.00
2023-04-15T11:06:05.061Z,1776.00
2023-04-15T11:07:05.002Z,1782.00
2023-04-15T11:08:04.969Z,1790.00
2023-04-15T11:09:04.929Z,1794.00
2023-04-15T11:10:04.941Z,1787.00
2023-04-15T11:11:04.843Z,1798.00
2023-04-15T11:12:04.828Z,1790.00
2023-04-15T11:13:04.811Z,1786.00
2023-04-15T11:14:04.905Z,1791.00
2023-04-15T11:15:04.740Z,1791.00
2023-04-15T11:16:04.727Z,1785.00
2023-04-15T11:17:04.637Z,1791.00
2023-04-15T11:18:04.668Z,1802.00
2023-04-15T11:19:04.577Z,1791.00
2023-04-15T11:20:04.552Z,1791.00
2023-04-15T11:21:04.501Z,1792.00
2023-04-15T11:22:04.463Z,1782.00
2023-04-15T11:23:13.832Z,1802.00
2023-04-15T11:24:05.747Z,1803.00
2023-04-15T11:25:04.352Z,1804.00
2023-04-15T11:26:04.293Z,1801.00
2023-04-15T11:27:04.260Z,1808.00
2023-04-15T11:28:04.220Z,1824.00
2023-04-15T11:29:04.376Z,1819.00
2023-04-15T11:30:04.170Z,1824.00
2023-04-15T11:31:04.090Z,1816.00
2023-04-15T11:32:04.107Z,1818.00
2023-04-15T11:33:04.081Z,1807.00
2023-04-15T11:34:04.080Z,1807.00
2023-04-15T11:35:03.935Z,1825.00
2023-04-15T11:36:03.889Z,1831.00
2023-04-15T11:37:03.854Z,1805.00
2023-04-15T11:38:03.827Z,1816.00
2023-04-15T11:39:03.771Z,1810.00
2023-04-15T11:40:03.757Z,1825.00
2023-04-15T11:41:03.685Z,1805.00
2023-04-15T11:42:03.639Z,1825.00
2023-04-15T11:43:03.579Z,1819.00
2023-04-15T11:44:03.829Z,1832.00
2023-04-15T11:45:03.521Z,1828.00
2023-04-15T11:46:03.492Z,1825.00
2023-04-15T11:47:03.431Z,1816.00
2023-04-15T11:48:03.392Z,1828.00
2023-04-15T11:49:03.358Z,1817.00
2023-04-15T11:50:03.324Z,1812.00
2023-04-15T11:51:03.350Z,1829.00
2023-04-15T11:52:03.293Z,1823.00
2023-04-15T11:53:03.305Z,1829.00
2023-04-15T11:54:03.610Z,1810.00
2023-04-15T11:55:03.247Z,1825.00
2023-04-15T11:56:03.231Z,1821.00
2023-04-15T11:57:03.231Z,1811.00
2023-04-15T11:58:03.196Z,1833.00
2023-04-15T11:59:03.205Z,1826.00
2023-04-15T12:00:03.179Z,1831.00
2023-04-15T12:01:03.172Z,1818.00
2023-04-15T12:02:03.219Z,1821.00
2023-04-15T12:03:03.266Z,1821.00
2023-04-15T12:04:03.456Z,1828.00
2023-04-15T12:05:03.224Z,1832.00
2023-04-15T12:06:03.075Z,1821.00
2023-04-15T12:07:03.103Z,1817.00
2023-04-15T12:08:03.039Z,1831.00
2023-04-15T12:09:03.034Z,1817.00
2023-04-15T12:10:03.005Z,1812.00
2023-04-15T12:11:02.976Z,1819.00
2023-04-15T12:12:02.947Z,1826.00
2023-04-15T12:13:02.952Z,1815.00
2023-04-15T12:14:03.200Z,1820.00
2023-04-15T12:15:02.907Z,1819.00
2023-04-15T12:16:02.918Z,1821.00
2023-04-15T12:17:02.810Z,1817.00
2023-04-15T12:18:02.836Z,1821.00